Time;durP1;ratioP1;P1;durP2;ratioP2;P2;SDS_P1;SDS_P2;PMS_P1;PMS_P2;Temp;Humidity;BMP_temperature;BMP_pressure;BME280_temperature;BME280_humidity;BME280_pressure;Samples;Min_cycle;Max_cycle;Signal;HPM_P1;HPM_P2
2023/08/05 00:00:15;;;;;;;9.82;4.88;;;12.80;99.90;;;;;;7380239;19;20010;-57
2023/08/05 00:02:42;;;;;;;5.95;4.65;;;12.70;99.90;;;;;;7376379;19;20021;-60
2023/08/05 00:05:08;;;;;;;7.07;5.55;;;12.70;99.90;;;;;;7373800;19;20031;-58
2023/08/05 00:07:34;;;;;;;8.05;5.22;;;12.70;99.90;;;;;;7380819;19;20078;-58
2023/08/05 00:10:01;;;;;;;9.85;5.38;;;12.80;99.90;;;;;;7377079;19;20106;-60
2023/08/05 00:12:27;;;;;;;10.05;5.63;;;12.80;99.90;;;;;;7364615;19;20522;-59
2023/08/05 00:14:53;;;;;;;9.60;6.03;;;12.80;99.90;;;;;;7373266;19;20015;-59
2023/08/05 00:17:19;;;;;;;8.30;6.00;;;12.80;99.90;;;;;;7374975;19;20443;-59
2023/08/05 00:19:45;;;;;;;10.82;6.05;;;12.90;99.90;;;;;;7376332;19;20086;-59
2023/08/05 00:22:12;;;;;;;10.50;6.15;;;12.90;99.90;;;;;;7376586;19;20402;-61
2023/08/05 00:24:39;;;;;;;6.93;5.32;;;12.90;99.90;;;;;;7373586;19;20786;-61
2023/08/05 00:27:06;;;;;;;10.35;6.43;;;12.90;99.90;;;;;;7376916;19;20026;-61
2023/08/05 00:29:32;;;;;;;8.18;6.28;;;13.00;99.90;;;;;;7377935;19;20506;-60
2023/08/05 00:31:58;;;;;;;8.98;6.07;;;13.00;99.90;;;;;;7376290;19;20015;-61
2023/08/05 00:34:25;;;;;;;9.02;5.78;;;13.00;99.90;;;;;;7378205;19;20014;-61
2023/08/05 00:36:51;;;;;;;7.93;6.43;;;13.10;99.90;;;;;;7376443;19;20018;-61
2023/08/05 00:39:18;;;;;;;13.80;6.72;;;13.10;99.90;;;;;;7378119;19;20456;-61
2023/08/05 00:41:45;;;;;;;8.55;5.85;;;13.10;99.90;;;;;;7378246;19;20014;-61
2023/08/05 00:44:11;;;;;;;9.40;6.03;;;13.10;99.90;;;;;;7373796;19;20022;-61
2023/08/05 00:46:38;;;;;;;10.45;6.25;;;13.20;99.90;;;;;;7376148;19;20018;-59
2023/08/05 00:49:04;;;;;;;9.20;6.32;;;13.20;99.90;;;;;;7374484;19;20121;-59
2023/08/05 00:51:30;;;;;;;12.32;6.22;;;13.20;99.90;;;;;;7375112;19;20127;-59
2023/08/05 00:53:57;;;;;;;8.70;6.07;;;13.20;99.90;;;;;;7372126;19;20019;-59
2023/08/05 00:56:24;;;;;;;9.43;5.72;;;13.10;99.90;;;;;;7370980;19;20497;-59
2023/08/05 00:58:52;;;;;;;8.70;6.05;;;13.10;99.90;;;;;;7368445;19;20014;-59
2023/08/05 01:01:18;;;;;;;10.05;6.90;;;13.10;99.90;;;;;;7369610;19;20026;-59
2023/08/05 01:03:44;;;;;;;9.65;6.43;;;13.10;99.90;;;;;;7369868;19;20026;-60
2023/08/05 01:06:12;;;;;;;8.45;6.15;;;13.10;99.90;;;;;;7373795;19;20022;-61
2023/08/05 01:08:39;;;;;;;10.32;7.03;;;13.00;99.90;;;;;;7366066;19;20022;-60
2023/08/05 01:11:06;;;;;;;11.10;7.00;;;13.00;99.90;;;;;;7371566;19;20026;-61
2023/08/05 01:13:33;;;;;;;9.88;6.90;;;13.00;99.90;;;;;;7374333;19;20011;-60
2023/08/05 01:15:59;;;;;;;10.95;7.15;;;12.90;99.90;;;;;;7370141;19;20022;-60
2023/08/05 01:18:27;;;;;;;8.93;5.47;;;12.90;99.90;;;;;;7374270;19;20462;-59
2023/08/05 01:20:55;;;;;;;7.80;5.82;;;12.90;99.90;;;;;;7373306;19;20026;-59
2023/08/05 01:23:44;;;;;;;12.43;6.25;;;12.90;99.90;;;;;;7371556;19;20033;-60
2023/08/05 01:26:11;;;;;;;9.65;6.07;;;12.80;99.90;;;;;;7366575;19;20307;-60
2023/08/05 01:28:38;;;;;;;10.60;7.07;;;12.80;99.90;;;;;;7367990;19;20064;-59
2023/08/05 01:31:06;;;;;;;9.55;6.40;;;12.70;99.90;;;;;;7372177;19;20090;-60
2023/08/05 01:33:33;;;;;;;11.48;7.00;;;12.70;99.90;;;;;;7371845;19;21570;-59
2023/08/05 01:35:59;;;;;;;10.55;6.60;;;12.60;99.90;;;;;;7371591;19;20661;-60
2023/08/05 01:38:25;;;;;;;10.70;7.28;;;12.60;99.90;;;;;;7373298;19;20037;-60
2023/08/05 01:40:52;;;;;;;9.63;7.25;;;12.50;99.90;;;;;;7368594;19;20481;-61
2023/08/05 01:43:19;;;;;;;11.18;7.38;;;12.40;99.90;;;;;;7370330;19;20068;-61
2023/08/05 01:45:45;;;;;;;12.00;7.30;;;12.40;99.90;;;;;;7373228;19;20038;-60
2023/08/05 01:48:12;;;;;;;9.70;6.93;;;12.40;99.90;;;;;;7370875;19;20022;-61
2023/08/05 01:50:38;;;;;;;9.43;6.53;;;12.30;99.90;;;;;;7373184;19;20060;-61
2023/08/05 01:53:05;;;;;;;10.07;7.28;;;12.10;99.90;;;;;;7373229;19;20379;-61
2023/08/05 01:55:31;;;;;;;9.80;6.60;;;12.10;99.90;;;;;;7372921;19;20050;-61
2023/08/05 01:57:57;;;;;;;8.85;6.82;;;12.00;99.90;;;;;;7375144;19;20062;-61
2023/08/05 02:00:24;;;;;;;11.38;6.95;;;12.00;99.90;;;;;;7372024;19;20023;-61
2023/08/05 02:02:50;;;;;;;11.68;6.85;;;11.90;99.90;;;;;;7373537;19;20014;-61
2023/08/05 02:05:17;;;;;;;8.65;7.15;;;12.00;99.90;;;;;;7368350;19;20841;-61
2023/08/05 02:07:43;;;;;;;10.73;6.75;;;11.90;99.90;;;;;;7375036;19;20047;-61
2023/08/05 02:10:09;;;;;;;12.10;7.30;;;11.90;99.90;;;;;;7366682;19;20522;-61
2023/08/05 02:12:35;;;;;;;9.75;7.57;;;11.90;99.90;;;;;;7372740;19;20022;-59
2023/08/05 02:15:02;;;;;;;11.15;8.05;;;11.80;99.90;;;;;;7368307;19;20042;-60
2023/08/05 02:17:48;;;;;;;12.43;7.57;;;11.80;99.90;;;;;;7367162;19;20025;-61
2023/08/05 02:20:15;;;;;;;11.90;7.22;;;11.80;99.90;;;;;;7363190;19;20466;-61
2023/08/05 02:22:42;;;;;;;12.32;8.15;;;11.70;99.90;;;;;;7370116;19;20107;-60
2023/08/05 02:25:08;;;;;;;14.63;7.13;;;11.70;99.90;;;;;;7368478;19;20489;-60
2023/08/05 02:27:34;;;;;;;9.80;7.18;;;11.70;99.90;;;;;;7372526;19;20592;-61
2023/08/05 02:30:01;;;;;;;10.73;8.43;;;11.60;99.90;;;;;;7371117;19;20014;-59
2023/08/05 02:32:27;;;;;;;10.20;7.55;;;11.60;99.90;;;;;;7366634;19;20021;-60
2023/08/05 02:34:53;;;;;;;10.50;8.73;;;11.60;99.90;;;;;;7363520;19;20355;-60
2023/08/05 02:37:19;;;;;;;11.65;7.40;;;11.60;99.90;;;;;;7368808;19;20015;-60
2023/08/05 02:39:45;;;;;;;11.98;7.68;;;11.60;99.90;;;;;;7368594;19;20387;-60
2023/08/05 02:42:12;;;;;;;11.93;7.88;;;11.60;99.90;;;;;;7368556;19;20011;-60
2023/08/05 02:44:39;;;;;;;9.55;7.10;;;11.60;99.90;;;;;;7364685;19;20021;-60
2023/08/05 02:47:05;;;;;;;10.25;6.78;;;11.50;99.90;;;;;;7366402;19;20014;-60
2023/08/05 02:49:32;;;;;;;11.45;7.53;;;11.50;99.90;;;;;;7370433;19;20025;-60
2023/08/05 02:51:58;;;;;;;9.02;7.10;;;11.50;99.90;;;;;;7371263;19;20029;-60
2023/08/05 02:54:27;;;;;;;12.38;7.82;;;11.40;99.90;;;;;;7369214;19;20477;-60
2023/08/05 02:56:54;;;;;;;10.95;7.78;;;11.50;99.90;;;;;;7372479;19;20014;-60
2023/08/05 02:59:20;;;;;;;10.15;7.97;;;11.40;99.90;;;;;;7368693;19;20023;-60
2023/08/05 03:01:46;;;;;;;9.98;8.40;;;11.50;99.90;;;;;;7371868;19;20014;-60
2023/08/05 03:04:14;;;;;;;13.27;8.15;;;11.50;99.90;;;;;;7363295;19;20018;-63
2023/08/05 03:06:40;;;;;;;8.20;7.30;;;11.50;99.90;;;;;;7370301;19;20490;-60
2023/08/05 03:09:06;;;;;;;12.23;8.20;;;11.50;99.90;;;;;;7368697;19;20074;-60
2023/08/05 03:11:32;;;;;;;12.80;8.38;;;11.50;99.90;;;;;;7367632;19;20022;-59
2023/08/05 03:14:02;;;;;;;12.57;8.60;;;11.50;99.90;;;;;;7371568;19;20533;-61
2023/08/05 03:16:28;;;;;;;13.98;8.23;;;11.50;99.90;;;;;;7367899;19;20018;-61
2023/08/05 03:19:02;;;;;;;10.50;7.90;;;11.50;99.90;;;;;;7368548;19;20018;-61
2023/08/05 03:21:30;;;;;;;13.52;8.57;;;11.50;99.90;;;;;;7370562;19;20026;-61
2023/08/05 03:23:57;;;;;;;13.45;9.27;;;11.50;99.90;;;;;;7367043;19;20093;-62
2023/08/05 03:26:25;;;;;;;9.80;8.40;;;11.60;99.90;;;;;;7369238;19;20015;-62
2023/08/05 03:28:53;;;;;;;11.52;9.07;;;11.60;99.90;;;;;;7368543;19;20377;-62
2023/08/05 03:31:19;;;;;;;12.52;8.23;;;11.70;99.90;;;;;;7367910;19;20378;-60
2023/08/05 03:33:47;;;;;;;9.18;8.23;;;11.70;99.90;;;;;;7366347;19;20751;-60
2023/08/05 03:36:15;;;;;;;8.48;6.70;;;11.80;99.90;;;;;;7361914;19;20347;-60
2023/08/05 03:38:41;;;;;;;9.02;7.00;;;11.70;99.90;;;;;;7366690;19;20047;-60
2023/08/05 03:41:07;;;;;;;10.48;7.72;;;11.80;99.90;;;;;;7369094;19;20025;-60
2023/08/05 03:43:33;;;;;;;12.10;7.50;;;11.80;99.90;;;;;;7367980;19;20064;-60
2023/08/05 03:46:02;;;;;;;11.25;7.97;;;11.80;99.90;;;;;;7359873;19;20010;-60
2023/08/05 03:48:32;;;;;;;9.52;7.93;;;11.90;99.90;;;;;;7365843;19;20501;-60
2023/08/05 03:50:58;;;;;;;14.20;8.23;;;12.00;99.90;;;;;;7366201;19;20522;-61
2023/08/05 03:53:26;;;;;;;12.30;8.18;;;12.00;99.90;;;;;;7373084;19;20416;-60
2023/08/05 03:55:52;;;;;;;10.65;7.68;;;12.10;99.90;;;;;;7373015;19;20022;-60
2023/08/05 03:58:19;;;;;;;10.20;7.93;;;12.10;99.90;;;;;;7371423;19;20034;-60
2023/08/05 04:00:49;;;;;;;12.95;8.05;;;12.10;99.90;;;;;;7370110;19;20344;-60
2023/08/05 04:03:16;;;;;;;12.82;9.25;;;12.10;99.90;;;;;;7369868;19;20097;-60
2023/08/05 04:05:43;;;;;;;14.45;9.25;;;12.10;99.90;;;;;;7371551;19;20677;-59
2023/08/05 04:08:11;;;;;;;10.68;8.57;;;12.20;99.90;;;;;;7370473;19;20010;-60
2023/08/05 04:10:40;;;;;;;16.63;9.20;;;12.20;99.90;;;;;;7374434;19;20037;-60
2023/08/05 04:13:11;;;;;;;12.57;8.95;;;12.20;99.90;;;;;;7373657;19;20362;-60
2023/08/05 04:15:38;;;;;;;12.20;8.63;;;12.20;99.90;;;;;;7373424;19;20110;-60
2023/08/05 04:18:05;;;;;;;12.75;9.65;;;12.20;99.90;;;;;;7374118;19;20474;-60
2023/08/05 04:20:34;;;;;;;10.75;8.70;;;12.30;99.90;;;;;;7373818;19;20501;-59
2023/08/05 04:23:01;;;;;;;11.00;8.82;;;12.30;99.90;;;;;;7371942;19;20387;-59
2023/08/05 04:25:30;;;;;;;11.40;8.85;;;12.20;99.90;;;;;;7373386;19;20025;-60
2023/08/05 04:27:57;;;;;;;13.10;9.38;;;12.20;99.90;;;;;;7373561;19;20018;-61
2023/08/05 04:30:23;;;;;;;10.88;8.50;;;12.20;99.90;;;;;;7374725;19;20011;-61
2023/08/05 04:32:50;;;;;;;11.98;8.43;;;12.20;99.90;;;;;;7373537;19;20046;-61
2023/08/05 04:35:16;;;;;;;14.70;7.90;;;12.20;99.90;;;;;;7374445;19;20038;-60
2023/08/05 04:37:42;;;;;;;14.70;9.00;;;12.20;99.90;;;;;;7370633;19;20018;-59
2023/08/05 04:40:10;;;;;;;14.48;8.95;;;12.10;99.90;;;;;;7366450;19;20098;-60
2023/08/05 04:42:36;;;;;;;12.15;8.57;;;12.10;99.90;;;;;;7367590;19;20026;-60
2023/08/05 04:45:03;;;;;;;14.18;8.57;;;12.10;99.90;;;;;;7368292;19;20019;-60
2023/08/05 04:47:30;;;;;;;11.07;7.55;;;12.20;99.90;;;;;;7366147;19;20022;-59
2023/08/05 04:49:56;;;;;;;15.15;9.00;;;12.20;99.90;;;;;;7370235;19;20375;-61
2023/08/05 04:52:22;;;;;;;10.95;8.13;;;12.20;99.90;;;;;;7371334;19;20022;-62
2023/08/05 04:54:49;;;;;;;13.02;8.32;;;12.30;99.90;;;;;;7372633;19;20018;-63
2023/08/05 04:57:16;;;;;;;13.65;8.57;;;12.40;99.90;;;;;;7368791;19;20052;-63
2023/08/05 04:59:47;;;;;;;14.60;8.85;;;12.50;99.90;;;;;;7367731;19;20458;-63
2023/08/05 05:02:13;;;;;;;12.75;8.75;;;12.60;99.90;;;;;;7374201;19;20036;-63
2023/08/05 05:04:39;;;;;;;11.75;7.68;;;12.70;99.90;;;;;;7365233;19;21077;-63
2023/08/05 05:07:05;;;;;;;12.27;8.23;;;12.80;99.90;;;;;;7364852;19;20100;-63
2023/08/05 05:09:32;;;;;;;10.48;7.90;;;13.00;99.90;;;;;;7372678;19;20014;-59
2023/08/05 05:12:00;;;;;;;12.48;7.78;;;13.20;99.90;;;;;;7361722;19;20381;-60
2023/08/05 05:14:26;;;;;;;15.20;10.27;;;13.30;99.90;;;;;;7366789;19;20057;-60
2023/08/05 05:16:52;;;;;;;9.95;8.48;;;13.40;99.90;;;;;;7369639;19;20014;-61
2023/08/05 05:19:30;;;;;;;22.83;16.63;;;13.50;99.90;;;;;;7370641;19;20030;-61
2023/08/05 05:22:18;;;;;;;12.70;8.75;;;13.70;99.90;;;;;;7375310;19;20010;-61
2023/08/05 05:24:45;;;;;;;17.42;14.07;;;13.80;99.90;;;;;;7373511;19;20363;-62
2023/08/05 05:27:14;;;;;;;12.68;9.55;;;14.00;99.90;;;;;;7370494;19;20471;-63
2023/08/05 05:29:41;;;;;;;12.05;8.98;;;14.20;99.90;;;;;;7373256;19;20022;-63
2023/08/05 05:32:07;;;;;;;12.00;8.55;;;14.20;99.90;;;;;;7371458;19;20027;-62
2023/08/05 05:34:34;;;;;;;12.25;8.48;;;14.30;99.90;;;;;;7371448;19;20014;-61
2023/08/05 05:37:00;;;;;;;11.30;9.45;;;14.40;99.90;;;;;;7370722;19;20019;-63
2023/08/05 05:39:26;;;;;;;210.15;180.60;;;14.60;99.90;;;;;;7373400;19;20010;-63
2023/08/05 05:41:52;;;;;;;34.50;29.95;;;15.00;99.90;;;;;;7376848;19;20014;-62
2023/08/05 05:44:19;;;;;;;11.68;9.10;;;15.50;99.90;;;;;;7371641;19;20455;-62
2023/08/05 05:46:45;;;;;;;23.73;21.13;;;15.60;99.90;;;;;;7370839;19;20018;-61
2023/08/05 05:49:12;;;;;;;13.25;7.90;;;15.80;99.90;;;;;;7367402;19;20021;-61
2023/08/05 05:51:38;;;;;;;17.63;14.05;;;15.80;99.90;;;;;;7372747;19;20024;-61
2023/08/05 05:54:05;;;;;;;20.92;18.70;;;15.80;99.90;;;;;;7371856;19;20033;-61
2023/08/05 05:56:32;;;;;;;11.52;7.78;;;15.80;99.90;;;;;;7371361;19;20014;-62
2023/08/05 05:58:58;;;;;;;11.15;9.32;;;15.70;99.90;;;;;;7372159;19;20010;-62
2023/08/05 06:01:25;;;;;;;13.10;8.15;;;15.70;99.90;;;;;;7370649;19;20023;-62
2023/08/05 06:03:51;;;;;;;10.40;6.20;;;15.70;99.90;;;;;;7369148;19;20015;-61
2023/08/05 06:06:18;;;;;;;9.55;7.20;;;15.80;99.90;;;;;;7367450;19;20050;-61
2023/08/05 06:08:44;;;;;;;10.38;8.23;;;16.00;99.90;;;;;;7367345;19;20557;-60
2023/08/05 06:11:10;;;;;;;97.28;86.93;;;16.20;99.90;;;;;;7369797;19;20053;-61
2023/08/05 06:13:37;;;;;;;9.75;7.78;;;16.50;99.90;;;;;;7368257;19;20019;-65
2023/08/05 06:16:04;;;;;;;7.03;5.70;;;16.80;99.90;;;;;;7365505;19;20490;-63
2023/08/05 06:18:30;;;;;;;8.60;5.60;;;17.00;99.90;;;;;;7367472;19;20509;-63
2023/08/05 06:20:57;;;;;;;8.32;7.28;;;17.20;99.90;;;;;;7368497;19;20029;-63
2023/08/05 06:23:23;;;;;;;10.35;7.90;;;17.20;99.90;;;;;;7366988;19;20014;-64
2023/08/05 06:25:49;;;;;;;9.85;5.50;;;17.20;99.90;;;;;;7366297;19;20022;-64
2023/08/05 06:28:16;;;;;;;13.70;9.80;;;17.20;99.90;;;;;;7367309;19;20026;-64
2023/08/05 06:30:46;;;;;;;8.10;6.97;;;17.20;99.90;;;;;;7366797;19;20042;-64
2023/08/05 06:33:13;;;;;;;9.35;7.35;;;17.30;99.90;;;;;;7366076;19;20444;-61
2023/08/05 06:35:42;;;;;;;7.22;5.18;;;17.30;99.90;;;;;;7364223;19;20476;-63
2023/08/05 06:38:08;;;;;;;6.82;4.20;;;17.30;99.90;;;;;;7367470;19;20052;-62
2023/08/05 06:40:34;;;;;;;6.95;5.22;;;17.40;99.90;;;;;;7368636;19;20038;-65
2023/08/05 06:43:01;;;;;;;6.22;4.78;;;17.40;99.90;;;;;;7372519;19;20022;-64
2023/08/05 06:45:27;;;;;;;6.50;4.75;;;17.20;99.90;;;;;;7366152;19;20023;-65
2023/08/05 06:47:53;;;;;;;6.80;4.72;;;17.20;99.90;;;;;;7364160;19;20487;-66
2023/08/05 06:50:20;;;;;;;9.63;4.63;;;17.10;99.90;;;;;;7367625;19;20023;-65
2023/08/05 06:52:46;;;;;;;8.95;5.00;;;17.00;99.90;;;;;;7368426;19;20018;-63
2023/08/05 06:55:17;;;;;;;7.15;4.50;;;16.90;99.90;;;;;;7362170;19;20040;-65
2023/08/05 06:57:45;;;;;;;6.30;3.65;;;16.90;99.90;;;;;;7369209;19;20018;-65
2023/08/05 07:00:12;;;;;;;8.18;3.92;;;16.80;99.90;;;;;;7361133;19;20486;-65
2023/08/05 07:02:38;;;;;;;10.95;4.70;;;16.80;99.90;;;;;;7369557;19;20081;-65
2023/08/05 07:05:04;;;;;;;7.30;4.25;;;16.80;99.90;;;;;;7364823;19;20026;-65
2023/08/05 07:07:31;;;;;;;6.63;4.43;;;16.80;99.90;;;;;;7370803;19;20018;-65
2023/08/05 07:10:01;;;;;;;6.78;4.35;;;16.80;99.90;;;;;;7370698;19;20477;-64
2023/08/05 07:12:28;;;;;;;7.72;4.30;;;16.80;99.90;;;;;;7373676;19;20023;-65
2023/08/05 07:14:54;;;;;;;9.80;4.53;;;16.90;99.90;;;;;;7372078;19;21554;-61
2023/08/05 07:17:22;;;;;;;6.80;4.40;;;16.90;99.90;;;;;;7367301;19;20362;-61
2023/08/05 07:19:48;;;;;;;8.98;4.80;;;17.00;99.90;;;;;;7367451;19;20022;-61
2023/08/05 07:22:15;;;;;;;7.75;4.38;;;17.10;99.90;;;;;;7369976;19;20029;-65
2023/08/05 07:24:41;;;;;;;8.40;4.50;;;17.20;99.90;;;;;;7372107;19;20015;-64
2023/08/05 07:27:07;;;;;;;10.55;4.88;;;17.30;99.90;;;;;;7372100;19;20014;-65
2023/08/05 07:29:34;;;;;;;7.68;4.53;;;17.40;99.90;;;;;;7373498;19;20021;-65
2023/08/05 07:32:02;;;;;;;7.32;4.80;;;17.60;99.90;;;;;;7371167;19;20483;-65
2023/08/05 07:34:31;;;;;;;7.55;3.97;;;17.60;99.90;;;;;;7373491;19;20019;-65
2023/08/05 07:36:59;;;;;;;9.50;4.57;;;17.60;99.90;;;;;;7379316;19;20022;-64
2023/08/05 07:39:33;;;;;;;7.43;4.15;;;17.80;99.90;;;;;;7373626;19;20529;-65
2023/08/05 07:42:02;;;;;;;8.27;4.25;;;17.90;99.90;;;;;;7376507;19;20668;-65
2023/08/05 07:44:31;;;;;;;9.55;5.57;;;18.00;99.90;;;;;;7372216;19;20050;-61
2023/08/05 07:46:58;;;;;;;8.48;5.35;;;18.40;99.90;;;;;;7375715;19;20029;-61
2023/08/05 07:49:26;;;;;;;8.27;3.10;;;19.10;99.90;;;;;;7371199;19;20107;-61
2023/08/05 07:51:53;;;;;;;8.98;3.85;;;19.60;99.90;;;;;;7377121;19;20021;-62
2023/08/05 07:54:21;;;;;;;7.18;3.50;;;19.60;99.90;;;;;;7364608;19;20037;-61
2023/08/05 07:56:48;;;;;;;7.00;3.40;;;19.30;99.90;;;;;;7374216;19;20753;-61
2023/08/05 07:59:17;;;;;;;7.85;4.45;;;19.40;99.90;;;;;;7372597;19;20021;-64
2023/08/05 08:01:45;;;;;;;5.25;3.30;;;19.20;99.90;;;;;;7373385;19;20527;-65
2023/08/05 08:04:15;;;;;;;9.25;3.10;;;18.90;99.90;;;;;;7374167;19;20030;-65
2023/08/05 08:06:43;;;;;;;5.30;3.17;;;18.80;99.90;;;;;;7370577;19;20609;-65
2023/08/05 08:09:10;;;;;;;6.60;4.10;;;18.80;99.90;;;;;;7372662;19;20026;-63
2023/08/05 08:11:36;;;;;;;6.00;2.95;;;18.60;99.90;;;;;;7376164;19;20019;-63
2023/08/05 08:14:04;;;;;;;6.32;3.80;;;18.60;99.90;;;;;;7374928;19;20408;-63
2023/08/05 08:16:31;;;;;;;5.60;3.30;;;18.50;99.90;;;;;;7370233;19;20015;-65
2023/08/05 08:18:58;;;;;;;7.00;3.65;;;18.60;99.90;;;;;;7373287;19;20018;-63
2023/08/05 08:21:28;;;;;;;5.70;3.22;;;18.80;99.90;;;;;;7378250;19;20358;-63
2023/08/05 08:23:55;;;;;;;6.43;3.10;;;18.90;99.90;;;;;;7377668;19;20109;-63
2023/08/05 08:26:21;;;;;;;7.00;3.17;;;19.00;99.90;;;;;;7369934;19;20478;-63
2023/08/05 08:28:47;;;;;;;7.78;3.47;;;19.10;99.90;;;;;;7373517;19;20085;-64
2023/08/05 08:31:13;;;;;;;6.35;3.35;;;19.30;99.90;;;;;;7373406;19;20018;-60
2023/08/05 08:33:39;;;;;;;7.22;3.40;;;19.50;99.90;;;;;;7376940;19;20018;-63
2023/08/05 08:36:06;;;;;;;6.72;3.65;;;19.80;99.90;;;;;;7374001;19;20026;-60
2023/08/05 08:38:32;;;;;;;5.45;3.33;;;19.90;99.90;;;;;;7368980;19;20018;-63
2023/08/05 08:40:58;;;;;;;5.93;4.72;;;20.00;99.90;;;;;;7373497;19;20014;-64
2023/08/05 08:43:27;;;;;;;6.20;2.85;;;19.60;99.90;;;;;;7370932;19;20523;-63
2023/08/05 08:45:58;;;;;;;7.45;3.67;;;19.70;99.90;;;;;;7375292;19;20062;-63
2023/08/05 08:48:25;;;;;;;7.45;3.53;;;19.80;99.90;;;;;;7370266;19;20026;-63
2023/08/05 08:50:53;;;;;;;5.60;2.72;;;20.10;99.90;;;;;;7374098;19;20018;-65
2023/08/05 08:53:24;;;;;;;6.70;2.70;;;20.10;99.90;;;;;;7372193;19;20031;-64
2023/08/05 08:55:52;;;;;;;5.60;2.50;;;20.10;99.90;;;;;;7373536;19;20014;-64
2023/08/05 08:58:19;;;;;;;6.22;2.95;;;20.10;99.90;;;;;;7371306;19;20126;-63
2023/08/05 09:00:45;;;;;;;8.15;4.72;;;20.00;99.90;;;;;;7370643;19;20026;-63
2023/08/05 09:03:13;;;;;;;6.93;3.08;;;20.10;99.90;;;;;;7373211;19;20019;-63
2023/08/05 09:05:42;;;;;;;11.13;4.50;;;20.30;99.90;;;;;;7365753;19;20082;-64
2023/08/05 09:08:12;;;;;;;8.18;4.80;;;20.40;99.90;;;;;;7370160;19;20052;-63
2023/08/05 09:10:38;;;;;;;4.78;1.95;;;20.50;99.90;;;;;;7372441;19;20015;-63
2023/08/05 09:13:08;;;;;;;4.40;2.35;;;20.90;99.90;;;;;;7372157;19;20092;-64
2023/08/05 09:15:39;;;;;;;5.63;3.80;;;21.00;99.90;;;;;;7375080;19;20019;-64
2023/08/05 09:18:07;;;;;;;4.97;2.40;;;21.40;99.90;;;;;;7366782;19;20475;-61
2023/08/05 09:20:35;;;;;;;6.47;3.00;;;21.50;99.90;;;;;;7363659;19;20691;-61
2023/08/05 09:23:11;;;;;;;6.05;2.40;;;21.40;99.90;;;;;;7372217;19;20022;-62
2023/08/05 09:25:42;;;;;;;5.07;2.47;;;21.50;99.90;;;;;;7370036;19;20030;-64
2023/08/05 09:28:09;;;;;;;4.57;2.08;;;21.60;99.90;;;;;;7371793;19;20447;-64
2023/08/05 09:30:35;;;;;;;4.88;2.17;;;21.60;99.90;;;;;;7369868;19;20019;-62
2023/08/05 09:33:02;;;;;;;3.00;1.92;;;22.00;99.90;;;;;;7366888;19;20038;-64
2023/08/05 09:35:29;;;;;;;4.88;2.10;;;22.00;99.90;;;;;;7372714;19;20093;-64
2023/08/05 09:37:56;;;;;;;5.13;1.98;;;22.20;99.90;;;;;;7364158;19;20022;-64
2023/08/05 09:40:22;;;;;;;5.75;3.17;;;22.90;99.90;;;;;;7362932;19;20018;-64
2023/08/05 09:42:50;;;;;;;4.50;2.35;;;23.40;99.90;;;;;;7374982;19;20046;-64
2023/08/05 09:45:21;;;;;;;4.43;1.85;;;23.70;99.90;;;;;;7373644;19;20412;-64
2023/08/05 09:47:50;;;;;;;3.03;1.58;;;23.10;99.90;;;;;;7374386;19;20047;-64
2023/08/05 09:50:18;;;;;;;3.88;2.08;;;23.20;99.90;;;;;;7367646;19;20018;-64
2023/08/05 09:52:49;;;;;;;6.07;3.80;;;23.50;99.90;;;;;;7369153;19;20100;-63
2023/08/05 09:55:18;;;;;;;4.68;1.95;;;23.20;99.90;;;;;;7368235;19;20018;-63
2023/08/05 09:57:46;;;;;;;4.93;2.42;;;23.00;99.90;;;;;;7369209;19;20015;-63
2023/08/05 10:00:14;;;;;;;2.97;1.98;;;22.70;99.90;;;;;;7366055;19;20028;-63
2023/08/05 10:02:44;;;;;;;6.78;2.85;;;22.50;99.90;;;;;;7368293;19;20014;-63
2023/08/05 10:05:15;;;;;;;2.90;1.88;;;22.50;99.90;;;;;;7371195;19;20021;-63
2023/08/05 10:07:42;;;;;;;2.72;1.80;;;22.40;99.90;;;;;;7365906;19;20039;-63
2023/08/05 10:10:20;;;;;;;5.63;2.15;;;22.60;99.90;;;;;;7366674;19;20348;-64
2023/08/05 10:12:54;;;;;;;2.97;1.88;;;22.50;99.90;;;;;;7372552;19;20025;-63
2023/08/05 10:15:25;;;;;;;3.17;1.92;;;22.40;99.90;;;;;;7370305;19;20350;-64
2023/08/05 10:17:52;;;;;;;4.22;1.73;;;22.50;99.90;;;;;;7372408;19;20019;-63
2023/08/05 10:20:19;;;;;;;5.10;2.38;;;22.80;99.90;;;;;;7363009;19;20022;-63
2023/08/05 10:23:06;;;;;;;3.58;2.03;;;23.80;99.90;;;;;;7369353;19;20078;-63
2023/08/05 10:25:47;;;;;;;6.55;2.15;;;23.60;99.90;;;;;;7368664;19;20061;-63
2023/08/05 10:28:23;;;;;;;3.75;2.28;;;23.20;99.90;;;;;;7369071;19;20015;-64
2023/08/05 10:30:49;;;;;;;7.15;2.03;;;23.30;99.90;;;;;;7369989;19;20029;-63
2023/08/05 10:33:16;;;;;;;4.90;2.88;;;23.90;99.90;;;;;;7366784;19;20010;-64
2023/08/05 10:35:43;;;;;;;2.78;2.08;;;24.20;99.90;;;;;;7370432;19;20025;-60
2023/08/05 10:38:16;;;;;;;6.97;2.40;;;23.80;99.90;;;;;;7367190;19;20039;-60
2023/08/05 10:40:49;;;;;;;3.95;2.30;;;23.80;99.90;;;;;;7370028;19;20405;-60
2023/08/05 10:43:32;;;;;;;4.68;2.13;;;24.10;99.90;;;;;;7369824;19;20044;-60
2023/08/05 10:46:01;;;;;;;5.45;2.70;;;24.50;99.90;;;;;;7365216;19;20050;-61
2023/08/05 10:48:29;;;;;;;5.22;2.25;;;24.00;99.90;;;;;;7371348;19;20701;-63
2023/08/05 10:51:03;;;;;;;6.30;2.83;;;23.80;99.90;;;;;;7364772;19;20468;-60
2023/08/05 10:53:30;;;;;;;6.03;2.83;;;23.70;99.90;;;;;;7369986;19;20110;-61
2023/08/05 10:55:57;;;;;;;7.65;3.83;;;23.90;99.90;;;;;;7364697;19;20015;-60
2023/08/05 10:58:35;;;;;;;5.80;3.05;;;24.40;99.90;;;;;;7369342;19;20035;-60
2023/08/05 11:01:04;;;;;;;3.97;2.47;;;24.30;99.90;;;;;;7371157;19;20014;-62
2023/08/05 11:03:34;;;;;;;5.32;3.42;;;24.50;99.90;;;;;;7378140;19;20018;-60
2023/08/05 11:06:03;;;;;;;4.57;2.30;;;24.00;99.90;;;;;;7372097;19;20025;-63
2023/08/05 11:08:31;;;;;;;6.47;2.55;;;23.70;99.90;;;;;;7373708;19;20642;-63
2023/08/05 11:11:14;;;;;;;5.28;2.55;;;23.30;99.90;;;;;;7373949;19;20739;-63
2023/08/05 11:13:43;;;;;;;5.65;2.83;;;23.30;99.90;;;;;;7374227;19;20482;-63
2023/08/05 11:16:10;;;;;;;5.85;2.90;;;23.50;99.90;;;;;;7376087;19;20415;-63
2023/08/05 11:18:38;;;;;;;5.75;3.60;;;23.40;99.90;;;;;;7374055;19;20057;-63
2023/08/05 11:21:07;;;;;;;6.07;3.42;;;23.40;99.90;;;;;;7378108;19;20538;-60
2023/08/05 11:23:36;;;;;;;6.85;4.63;;;23.00;99.90;;;;;;7371208;19;20025;-60
2023/08/05 11:26:02;;;;;;;5.80;4.00;;;23.10;99.90;;;;;;7374286;19;21956;-60
2023/08/05 11:28:31;;;;;;;6.45;4.20;;;23.10;99.90;;;;;;7372695;19;20069;-60
2023/08/05 11:31:00;;;;;;;6.90;5.15;;;22.90;99.90;;;;;;7379765;19;20015;-60
2023/08/05 11:33:30;;;;;;;7.53;5.57;;;23.00;99.90;;;;;;7368322;19;20384;-62
2023/08/05 11:35:56;;;;;;;6.88;5.47;;;23.20;99.90;;;;;;7371070;19;20026;-63
2023/08/05 11:38:23;;;;;;;7.78;5.28;;;23.20;99.90;;;;;;7369558;19;20419;-63
2023/08/05 11:40:55;;;;;;;8.82;6.32;;;22.70;99.90;;;;;;7372604;19;20039;-59
2023/08/05 11:43:23;;;;;;;7.32;6.20;;;22.40;99.90;;;;;;7373309;19;20022;-60
2023/08/05 11:45:51;;;;;;;9.10;6.80;;;22.20;99.90;;;;;;7373998;19;20436;-60
2023/08/05 11:48:21;;;;;;;7.15;6.43;;;22.00;99.90;;;;;;7372834;19;20023;-60
2023/08/05 11:50:49;;;;;;;7.53;6.68;;;21.90;99.90;;;;;;7376250;19;20026;-60
2023/08/05 11:53:17;;;;;;;10.85;7.50;;;21.80;99.90;;;;;;7375283;19;20015;-60
2023/08/05 11:55:44;;;;;;;8.45;7.18;;;21.80;99.90;;;;;;7374871;19;20117;-60
2023/08/05 11:58:13;;;;;;;8.05;6.68;;;21.70;99.90;;;;;;7374989;19;20018;-60
2023/08/05 12:00:48;;;;;;;9.60;8.60;;;21.60;99.90;;;;;;7372608;19;20026;-60
2023/08/05 12:03:15;;;;;;;11.68;9.05;;;21.30;99.90;;;;;;7373912;19;20048;-60
2023/08/05 12:05:43;;;;;;;13.45;9.52;;;21.30;99.90;;;;;;7371639;19;20025;-60
2023/08/05 12:08:11;;;;;;;11.15;9.93;;;21.40;99.90;;;;;;7371096;19;20022;-60
2023/08/05 12:10:38;;;;;;;10.20;9.05;;;21.40;99.90;;;;;;7376683;19;20014;-60
2023/08/05 12:13:08;;;;;;;11.13;10.05;;;21.30;99.90;;;;;;7373523;19;20018;-61
2023/08/05 12:15:34;;;;;;;11.25;10.13;;;21.20;99.90;;;;;;7374903;19;20038;-61
2023/08/05 12:18:06;;;;;;;13.30;11.35;;;21.70;99.90;;;;;;7373581;19;20052;-61
2023/08/05 12:20:35;;;;;;;;;;;22.10;99.90;;;;;;7369897;19;20018;-63
2023/08/05 12:23:03;;;;;;;12.90;11.60;;;22.00;99.90;;;;;;7374391;19;19930;-63
2023/08/05 12:25:31;;;;;;;12.82;11.48;;;22.60;99.90;;;;;;7374187;19;20476;-63
2023/08/05 12:27:59;;;;;;;13.25;11.90;;;22.80;99.90;;;;;;7375647;19;20099;-63
2023/08/05 12:30:25;;;;;;;14.63;13.18;;;22.90;99.90;;;;;;7374701;19;20078;-63
2023/08/05 12:32:54;;;;;;;14.38;12.90;;;23.00;99.90;;;;;;7371148;19;20032;-64
2023/08/05 12:35:20;;;;;;;16.13;14.60;;;23.10;99.90;;;;;;7372059;19;20014;-64
2023/08/05 12:37:46;;;;;;;15.20;13.68;;;23.00;99.90;;;;;;7374610;19;20026;-64
2023/08/05 12:40:13;;;;;;;15.20;13.55;;;22.90;99.90;;;;;;7374479;19;20014;-63
2023/08/05 12:42:40;;;;;;;14.43;12.93;;;22.50;99.90;;;;;;7374208;19;20018;-62
2023/08/05 12:45:07;;;;;;;14.73;13.05;;;22.30;99.90;;;;;;7375324;19;20041;-62